Ruby Princess — ZCDY2 — position and weather

sailwx.info

Track history (hours):
 
Tides and Currents Weather Stations Pressure Air Temp Water Temp Dewpoint Dewpoint Depression Visibility Wind Speed Wind Dir Waves Ship Positions

Ruby Princess

Last reported at 2019-Sep-15 22:00 UTC. Time now 2019-Sep-17 08:22 UTC.
Position N 52°06' W 131°48'.

Length 289 m; draft 8.7 m.

Type: Ship. MMSI: 310567000.

Wind from 300 at 18 knots

Barometer 1007.5 mb
Air temperature 14.2 ° C
Visibility: greater than 10.8 NM
Dewpoint 10.3 ° C
Water temperature 14.0 ° C

Date/timePositionNaut miles runAvg speedWind from/ knotsBaromVisibWave heightAir tempDewpointWater temp
2019-Sep-15 22:00N 52°06' W 131°48'12620.3 300 / 181007.510.8 14.210.314.0
2019-Sep-15 15:46N 50°39' W 129°21'1320.3
2019-Sep-15 15:08N 50°30' W 129°06'519.9
2019-Sep-15 14:53N 50°27' W 129°00'1213.3
2019-Sep-15 14:00N 50°18' W 128°48'1439.1 210 / 81003.210.8 14.010.516.0
2019-Sep-15 13:39N 50°09' W 128°32'6918.8
2019-Sep-15 10:00N 49°24' W 127°12'2337.1 210 / 141003.810.8 15.513.017.0
2019-Sep-15 09:22N 49°11' W 126°43'821.5
2019-Sep-15 09:01N 49°06' W 126°33'1121.4
2019-Sep-15 08:30N 49°00' W 126°20'1121.7
2019-Sep-15 08:01N 48°54' W 126°06'1121.7
2019-Sep-15 07:31N 48°48' W 125°53'1121.6
2019-Sep-15 07:01N 48°41' W 125°40'1121.5
2019-Sep-15 06:30N 48°36' W 125°26'1121.4
2019-Sep-15 06:00N 48°32' W 125°11'1122.0
2019-Sep-15 05:30N 48°32' W 124°54'1121.7
2019-Sep-15 05:00N 48°29' W 124°38'1122.7
2019-Sep-15 04:30N 48°25' W 124°23'1122.6
2019-Sep-15 04:00N 48°20' W 124°07'1222.9
2019-Sep-15 03:30N 48°17' W 123°50'1122.5
2019-Sep-15 03:00N 48°15' W 123°34'1019.3
2019-Sep-15 02:30N 48°09' W 123°22'816.1
2019-Sep-15 02:01N 48°12' W 123°11'6325.2
2019-Sep-15 02:00N 48°06' W 123°12'1326.9 230 / 91008.310.8 14.513.714.0
2019-Sep-15 01:30N 48°12' W 122°55'1419.5
2019-Sep-15 00:49N 48°04' W 122°38'720.9
2019-Sep-15 00:28N 47°57' W 122°33'1021.3
2019-Sep-15 00:01N 47°49' W 122°27'1020.6
2019-Sep-14 23:30N 47°38' W 122°27'3 5.0
2019-Sep-14 23:00N 47°38' W 122°23'0 0.0
2019-Sep-14 22:28N 47°38' W 122°23'0 0.0
2019-Sep-14 22:00N 47°38' W 122°23'0 0.0
2019-Sep-14 21:30N 47°38' W 122°23'0 0.0
2019-Sep-14 21:00N 47°38' W 122°23'0 0.0
2019-Sep-14 20:30N 47°38' W 122°23'0 0.0
2019-Sep-14 20:00N 47°38' W 122°23'0 0.0
2019-Sep-14 19:29N 47°38' W 122°23'0 0.0
2019-Sep-14 18:59N 47°38' W 122°23'0 0.0
2019-Sep-14 18:29N 47°38' W 122°23'0 0.0
2019-Sep-14 17:59N 47°38' W 122°23'0 0.0
2019-Sep-14 17:28N 47°38' W 122°23'0 0.0
2019-Sep-14 16:58N 47°38' W 122°23'0 0.0
2019-Sep-14 16:28N 47°38' W 122°23'0 0.0
2019-Sep-14 15:58N 47°38' W 122°23'0 0.0
2019-Sep-14 15:28N 47°38' W 122°23'0 0.0
2019-Sep-14 15:00N 47°38' W 122°23'0 0.0
2019-Sep-14 14:30N 47°38' W 122°23'0 0.0
2019-Sep-14 14:00N 47°38' W 122°23'0 0.0
2019-Sep-14 13:30N 47°38' W 122°23'0 0.0
2019-Sep-14 12:59N 47°38' W 122°23'1 2.1
2019-Sep-14 12:30N 47°37' W 122°24'713.2
2019-Sep-14 12:00N 47°44' W 122°27'815.6
2019-Sep-14 11:31N 47°51' W 122°29'815.6
2019-Sep-14 11:00N 47°58' W 122°35'816.1
2019-Sep-14 10:29N 48°06' W 122°40'817.5
2019-Sep-14 10:01N 48°11' W 122°50'916.7
2019-Sep-14 09:30N 48°11' W 123°02'714.8
2019-Sep-14 09:00N 48°11' W 123°13'815.1
2019-Sep-14 08:30N 48°10' W 123°24'510.1
2019-Sep-14 08:00N 48°13' W 123°31'815.2
2019-Sep-14 07:30N 48°20' W 123°27'510.8
2019-Sep-14 07:00N 48°25' W 123°24'0 0.6
2019-Sep-14 06:30N 48°25' W 123°23'0 0.0
2019-Sep-14 06:00N 48°25' W 123°23'0 0.0
2019-Sep-14 05:30N 48°25' W 123°23'0 0.0
2019-Sep-14 05:00N 48°25' W 123°23'0 0.0
2019-Sep-14 04:30N 48°25' W 123°23'0 0.0
2019-Sep-14 03:59N 48°25' W 123°23'0 0.0
2019-Sep-14 03:29N 48°25' W 123°23'0 0.0
2019-Sep-14 02:59N 48°25' W 123°23'0 0.0
2019-Sep-14 02:29N 48°25' W 123°23'0 0.0
2019-Sep-14 01:59N 48°25' W 123°23'1 1.4
2019-Sep-14 01:30N 48°25' W 123°24'510.1
2019-Sep-14 01:01N 48°20' W 123°24'917.9
2019-Sep-14 00:30N 48°13' W 123°34'1223.2
2019-Sep-14 00:00N 48°14' W 123°51'1223.3
2019-Sep-13 23:30N 48°18' W 124°07'1122.7
2019-Sep-13 23:01N 48°22' W 124°23'1020.9
2019-Sep-13 22:30N 48°27' W 124°37'1020.7
2019-Sep-13 22:00N 48°29' W 124°52'1020.3
2019-Sep-13 21:30N 48°29' W 125°08'918.7
2019-Sep-13 21:01N 48°33' W 125°21'1121.8
2019-Sep-13 20:31N 48°37' W 125°35'1121.7
2019-Sep-13 20:01N 48°43' W 125°49'1121.2
2019-Sep-13 19:30N 48°49' W 126°03'1121.8
2019-Sep-13 19:00N 48°55' W 126°16'1122.3
2019-Sep-13 18:30N 49°02' W 126°30'1222.3
2019-Sep-13 17:59N 49°09' W 126°45'9121.2
2019-Sep-13 13:41N 50°10' W 128°28'2221.5
2019-Sep-13 12:39N 50°28' W 128°49'422.1
2019-Sep-13 12:29N 50°31' W 128°53'1122.7
2019-Sep-13 12:00N 50°40' W 129°03'1122.7
2019-Sep-13 11:30N 50°49' W 129°14'1122.3
2019-Sep-13 11:00N 50°59' W 129°21'1121.9
2019-Sep-13 10:30N 51°10' W 129°27'1121.8
2019-Sep-13 10:00N 51°20' W 129°34'3213.2
2019-Sep-13 10:00N 51°18' W 129°30'1428.0 200 / 161011.310.8 15.514.714.0
2019-Sep-13 09:30N 51°30' W 129°41'1121.9
2019-Sep-13 08:59N 51°40' W 129°48'1222.0
2019-Sep-13 08:28N 51°51' W 129°55'10321.8
2019-Sep-13 03:45N 53°26' W 131°01'521.5
2019-Sep-13 03:30N 53°31' W 131°01'1121.5
2019-Sep-13 03:00N 53°42' W 131°01'1121.7
2019-Sep-13 02:30N 53°53' W 131°02'2221.6
2019-Sep-13 01:30N 54°14' W 131°04'1120.2
2019-Sep-13 00:59N 54°24' W 131°12'1221.0
2019-Sep-13 00:25N 54°34' W 131°23'25610.9
2019-Sep-12 00:57N 58°12' W 135°26'919.8
2019-Sep-12 00:30N 58°16' W 135°40'917.1
2019-Sep-12 00:00N 58°20' W 135°55'713.6
2019-Sep-11 23:30N 58°26' W 135°59'714.6
2019-Sep-11 23:00N 58°33' W 136°04'917.8
2019-Sep-11 22:30N 58°41' W 136°11'713.9
2019-Sep-11 22:00N 58°46' W 136°21'2 0.4
2019-Sep-11 15:55N 58°44' W 136°17'614.6
2019-Sep-11 15:30N 58°40' W 136°09'918.3
2019-Sep-11 15:00N 58°31' W 136°04'713.5
2019-Sep-11 14:30N 58°25' W 135°58'510.5
2019-Sep-11 14:00N 58°20' W 135°56'510.4
2019-Sep-11 13:30N 58°18' W 135°47'611.4
2019-Sep-11 13:00N 58°16' W 135°36'611.2
2019-Sep-11 12:29N 58°14' W 135°26'75 1.6
2019-Sep-09 15:00N 57°24' W 133°42'23418.0 300 / 91017.010.8 12.3 8.010.0
2019-Sep-09 02:00N 53°30' W 133°24'21321.0 300 / 151011.810.8 15.314.515.0
2019-Sep-08 15:53N 50°49' W 129°38'922.2
2019-Sep-08 15:28N 50°43' W 129°27'1022.1
2019-Sep-08 15:00N 50°36' W 129°15'1122.5
2019-Sep-08 14:30N 50°28' W 129°02'1122.4
2019-Sep-08 14:00N 50°20' W 128°50'4312.3
2019-Sep-08 14:00N 50°18' W 128°54'1724.3 320 / 81011.710.8 16.014.416.0
2019-Sep-08 13:19N 50°09' W 128°32'7923.7
2019-Sep-08 10:00N 49°18' W 127°00'1316.4 320 / 41013.3 5.4 15.014.715.0
2019-Sep-08 09:11N 49°11' W 126°43'422.2
2019-Sep-08 09:00N 49°08' W 126°38'1122.1
2019-Sep-08 08:30N 49°02' W 126°24'1122.7
2019-Sep-08 08:01N 48°56' W 126°10'1123.0
2019-Sep-08 07:31N 48°49' W 125°56'1122.6
2019-Sep-08 07:01N 48°42' W 125°42'1122.5
2019-Sep-08 06:30N 48°36' W 125°28'1122.2
2019-Sep-08 06:01N 48°32' W 125°12'1122.6
2019-Sep-08 05:30N 48°32' W 124°55'1122.3
2019-Sep-08 05:00N 48°29' W 124°39'1122.6
2019-Sep-08 04:30N 48°25' W 124°23'1122.3
2019-Sep-08 04:00N 48°21' W 124°08'1121.6
2019-Sep-08 03:30N 48°17' W 123°53'1122.0
2019-Sep-08 03:00N 48°15' W 123°36'9536.6
2019-Sep-08 03:00N 48°12' W 123°24'1 3.1 240 / 301013.710.8 13.511.810.0
2019-Sep-08 02:30N 48°11' W 123°24'612.7
2019-Sep-08 02:00N 48°11' W 123°14'1121.4
2019-Sep-08 01:30N 48°12' W 122°58'1221.8
2019-Sep-08 00:58N 48°08' W 122°41'1122.4
2019-Sep-08 00:28N 47°58' W 122°34'920.8
2019-Sep-08 00:00N 47°50' W 122°27'1020.4
2019-Sep-07 23:30N 47°40' W 122°27'4 6.6
2019-Sep-07 22:57N 47°38' W 122°23'0 0.0
2019-Sep-07 22:30N 47°38' W 122°23'0 0.0
2019-Sep-07 22:00N 47°38' W 122°23'0 0.0
2019-Sep-07 21:30N 47°38' W 122°23'0 0.0
2019-Sep-07 21:00N 47°38' W 122°23'0 0.0
2019-Sep-07 20:29N 47°38' W 122°23'0 0.0
2019-Sep-07 19:59N 47°38' W 122°23'0 0.0
2019-Sep-07 19:29N 47°38' W 122°23'0 0.0
2019-Sep-07 18:59N 47°38' W 122°23'0 0.0
2019-Sep-07 18:28N 47°38' W 122°23'0 0.0
2019-Sep-07 17:58N 47°38' W 122°23'0 1.5
2019-Sep-07 17:56N 47°38' W 122°23'0 0.0
2019-Sep-07 17:30N 47°38' W 122°23'0 1.3
2019-Sep-07 17:28N 47°38' W 122°23'0 0.0
2019-Sep-07 16:58N 47°38' W 122°23'0 0.6
2019-Sep-07 16:50N 47°38' W 122°23'0 0.2
2019-Sep-07 16:28N 47°38' W 122°23'0 0.0
2019-Sep-07 16:00N 47°38' W 122°23'0 0.5
2019-Sep-07 15:50N 47°38' W 122°23'0 0.3
2019-Sep-07 15:30N 47°38' W 122°23'0 4.2
2019-Sep-07 15:28N 47°38' W 122°23'0 0.3
2019-Sep-07 15:00N 47°38' W 122°23'0 6.6
2019-Sep-07 14:59N 47°38' W 122°23'0 0.2
2019-Sep-07 14:30N 47°38' W 122°23'0 0.0
2019-Sep-07 14:00N 47°38' W 122°23'0 0.3
2019-Sep-07 13:52N 47°38' W 122°23'0 0.1
2019-Sep-07 13:29N 47°38' W 122°23'0 0.3
2019-Sep-07 13:19N 47°38' W 122°23'0 0.2
2019-Sep-07 13:00N 47°38' W 122°23'0 1.6
2019-Sep-07 12:57N 47°38' W 122°23'1 1.4
2019-Sep-07 12:30N 47°37' W 122°24'5 9.8
2019-Sep-07 12:01N 47°41' W 122°28'815.2
2019-Sep-07 11:31N 47°49' W 122°28'118.2
2019-Sep-07 11:29N 47°50' W 122°28'817.1
2019-Sep-07 11:00N 47°57' W 122°34'816.3
2019-Sep-07 10:29N 48°04' W 122°39'815.2
2019-Sep-07 09:57N 48°10' W 122°48'817.4
2019-Sep-07 09:30N 48°12' W 122°59'918.1
2019-Sep-07 09:01N 48°11' W 123°13'815.7
2019-Sep-07 08:31N 48°10' W 123°24'611.9
2019-Sep-07 08:00N 48°14' W 123°31'713.4
2019-Sep-07 07:30N 48°20' W 123°27'510.7
2019-Sep-07 07:01N 48°25' W 123°24'1 1.2
2019-Sep-07 06:29N 48°25' W 123°23'0 0.0
2019-Sep-07 05:58N 48°25' W 123°23'0 0.0
2019-Sep-07 05:28N 48°25' W 123°23'0 0.0
2019-Sep-07 04:58N 48°25' W 123°23'0 0.0
2019-Sep-07 04:28N 48°25' W 123°23'0 0.0
2019-Sep-07 03:58N 48°25' W 123°23'0 0.0
2019-Sep-07 03:30N 48°25' W 123°23'0 0.6
2019-Sep-07 03:18N 48°25' W 123°23'0 0.4
2019-Sep-07 03:00N 48°25' W 123°23'0 0.7
2019-Sep-07 02:46N 48°25' W 123°24'0 0.6
2019-Sep-07 02:30N 48°25' W 123°23'0 0.4
2019-Sep-07 02:06N 48°25' W 123°24'0 1.6
2019-Sep-07 02:00N 48°25' W 123°23'0 0.9
2019-Sep-07 01:50N 48°25' W 123°23'0 0.4
2019-Sep-07 01:31N 48°25' W 123°23'3 5.2
2019-Sep-07 01:01N 48°23' W 123°25'612.7
2019-Sep-07 00:31N 48°16' W 123°26'918.5
2019-Sep-07 00:01N 48°13' W 123°39'1020.9
2019-Sep-06 23:31N 48°14' W 123°55'1020.0
2019-Sep-06 23:00N 48°18' W 124°09'1018.8
2019-Sep-06 22:30N 48°22' W 124°22'919.1
2019-Sep-06 22:01N 48°26' W 124°34'918.5
2019-Sep-06 21:31N 48°29' W 124°48'1018.7
2019-Sep-06 21:00N 48°29' W 125°02'919.0
2019-Sep-06 20:30N 48°31' W 125°16'1020.3
2019-Sep-06 20:01N 48°36' W 125°29'1020.7
2019-Sep-06 19:31N 48°41' W 125°42'1019.6
2019-Sep-06 19:01N 48°46' W 125°55'1020.1
2019-Sep-06 18:31N 48°52' W 126°08'1121.1
2019-Sep-06 18:01N 48°58' W 126°21'1121.4
2019-Sep-06 17:31N 49°05' W 126°34'1121.6
2019-Sep-06 17:00N 49°12' W 126°47'1122.0
2019-Sep-06 16:30N 49°19' W 126°60'1122.7
2019-Sep-06 16:00N 49°26' W 127°13'1622.8
2019-Sep-06 15:19N 49°35' W 127°32'4022.4
2019-Sep-06 13:32N 50°01' W 128°20'123.1
2019-Sep-06 13:30N 50°01' W 128°20'1122.6
2019-Sep-06 13:00N 50°11' W 128°29'1122.8
2019-Sep-06 12:30N 50°20' W 128°40'1122.5
2019-Sep-06 12:01N 50°29' W 128°50'1122.4
2019-Sep-06 11:31N 50°38' W 129°01'1122.0
2019-Sep-06 11:01N 50°47' W 129°12'1121.5
2019-Sep-06 10:31N 50°57' W 129°19'1122.1
2019-Sep-06 10:01N 51°07' W 129°26'1122.9
2019-Sep-06 09:31N 51°17' W 129°33'1122.4
2019-Sep-06 09:00N 51°28' W 129°39'1121.7
2019-Sep-06 08:30N 51°38' W 129°46'1122.3
2019-Sep-06 08:01N 51°48' W 129°53'1122.3
2019-Sep-06 07:31N 51°58' W 130°01'1122.3
2019-Sep-06 07:00N 52°09' W 130°08'1122.3
2019-Sep-06 06:30N 52°19' W 130°15'1122.9
2019-Sep-06 06:00N 52°29' W 130°22'1122.7
2019-Sep-06 05:31N 52°40' W 130°29'1123.0
2019-Sep-06 05:01N 52°50' W 130°37'1223.1
2019-Sep-06 04:31N 53°01' W 130°44'1122.9
2019-Sep-06 04:00N 53°11' W 130°52'1122.5
2019-Sep-06 03:30N 53°22' W 131°00'1122.6
2019-Sep-06 03:00N 53°33' W 131°01'9906.7
2019-Sep-06 03:00N 53°24' W 131°00'2041.5 360 / 61018.710.8 13.510.913.0
2019-Sep-06 02:30N 53°44' W 131°01'1122.3
2019-Sep-06 02:00N 53°56' W 131°02'1122.3
2019-Sep-06 01:30N 54°07' W 131°02'1122.7
2019-Sep-06 01:00N 54°18' W 131°05'1223.0
2019-Sep-06 00:30N 54°27' W 131°16'1122.2
2019-Sep-06 00:00N 54°37' W 131°27'1521.3
2019-Sep-05 23:17N 54°50' W 131°39'  
Track history (hours):
 
Tides and Currents Weather Stations Pressure Air Temp Water Temp Dewpoint Dewpoint Depression Visibility Wind Speed Wind Dir Waves Ship Positions

Ruby Princess

Last reported at 2019-Sep-15 22:00 UTC. Time now 2019-Sep-17 08:22 UTC.
Position N 52°06' W 131°48'.

Length 289 m; draft 8.7 m.

Type: Ship. MMSI: 310567000.

Wind from 300 at 18 knots

Barometer 1007.5 mb
Air temperature 14.2 ° C
Visibility: greater than 10.8 NM
Dewpoint 10.3 ° C
Water temperature 14.0 ° C

Date/timePositionNaut miles runAvg speedWind from/ knotsBaromVisibWave heightAir tempDewpointWater temp
2019-Sep-15 22:00N 52°06' W 131°48'12620.3 300 / 181007.510.8 14.210.314.0
2019-Sep-15 15:46N 50°39' W 129°21'1320.3
2019-Sep-15 15:08N 50°30' W 129°06'519.9
2019-Sep-15 14:53N 50°27' W 129°00'1213.3
2019-Sep-15 14:00N 50°18' W 128°48'1439.1 210 / 81003.210.8 14.010.516.0
2019-Sep-15 13:39N 50°09' W 128°32'6918.8
2019-Sep-15 10:00N 49°24' W 127°12'2337.1 210 / 141003.810.8 15.513.017.0
2019-Sep-15 09:22N 49°11' W 126°43'821.5
2019-Sep-15 09:01N 49°06' W 126°33'1121.4
2019-Sep-15 08:30N 49°00' W 126°20'1121.7
2019-Sep-15 08:01N 48°54' W 126°06'1121.7
2019-Sep-15 07:31N 48°48' W 125°53'1121.6
2019-Sep-15 07:01N 48°41' W 125°40'1121.5
2019-Sep-15 06:30N 48°36' W 125°26'1121.4
2019-Sep-15 06:00N 48°32' W 125°11'1122.0
2019-Sep-15 05:30N 48°32' W 124°54'1121.7
2019-Sep-15 05:00N 48°29' W 124°38'1122.7
2019-Sep-15 04:30N 48°25' W 124°23'1122.6
2019-Sep-15 04:00N 48°20' W 124°07'1222.9
2019-Sep-15 03:30N 48°17' W 123°50'1122.5
2019-Sep-15 03:00N 48°15' W 123°34'1019.3
2019-Sep-15 02:30N 48°09' W 123°22'816.1
2019-Sep-15 02:01N 48°12' W 123°11'6325.2
2019-Sep-15 02:00N 48°06' W 123°12'1326.9 230 / 91008.310.8 14.513.714.0
2019-Sep-15 01:30N 48°12' W 122°55'1419.5
2019-Sep-15 00:49N 48°04' W 122°38'720.9
2019-Sep-15 00:28N 47°57' W 122°33'1021.3
2019-Sep-15 00:01N 47°49' W 122°27'1020.6
2019-Sep-14 23:30N 47°38' W 122°27'3 5.0
2019-Sep-14 23:00N 47°38' W 122°23'0 0.0
2019-Sep-14 22:28N 47°38' W 122°23'0 0.0
2019-Sep-14 22:00N 47°38' W 122°23'0 0.0
2019-Sep-14 21:30N 47°38' W 122°23'0 0.0
2019-Sep-14 21:00N 47°38' W 122°23'0 0.0
2019-Sep-14 20:30N 47°38' W 122°23'0 0.0
2019-Sep-14 20:00N 47°38' W 122°23'0 0.0
2019-Sep-14 19:29N 47°38' W 122°23'0 0.0
2019-Sep-14 18:59N 47°38' W 122°23'0 0.0
2019-Sep-14 18:29N 47°38' W 122°23'0 0.0
2019-Sep-14 17:59N 47°38' W 122°23'0 0.0
2019-Sep-14 17:28N 47°38' W 122°23'0 0.0
2019-Sep-14 16:58N 47°38' W 122°23'0 0.0
2019-Sep-14 16:28N 47°38' W 122°23'0 0.0
2019-Sep-14 15:58N 47°38' W 122°23'0 0.0
2019-Sep-14 15:28N 47°38' W 122°23'0 0.0
2019-Sep-14 15:00N 47°38' W 122°23'0 0.0
2019-Sep-14 14:30N 47°38' W 122°23'0 0.0
2019-Sep-14 14:00N 47°38' W 122°23'0 0.0
2019-Sep-14 13:30N 47°38' W 122°23'0 0.0
2019-Sep-14 12:59N 47°38' W 122°23'1 2.1
2019-Sep-14 12:30N 47°37' W 122°24'713.2
2019-Sep-14 12:00N 47°44' W 122°27'815.6
2019-Sep-14 11:31N 47°51' W 122°29'815.6
2019-Sep-14 11:00N 47°58' W 122°35'816.1
2019-Sep-14 10:29N 48°06' W 122°40'817.5
2019-Sep-14 10:01N 48°11' W 122°50'916.7
2019-Sep-14 09:30N 48°11' W 123°02'714.8
2019-Sep-14 09:00N 48°11' W 123°13'815.1
2019-Sep-14 08:30N 48°10' W 123°24'510.1
2019-Sep-14 08:00N 48°13' W 123°31'815.2
2019-Sep-14 07:30N 48°20' W 123°27'510.8
2019-Sep-14 07:00N 48°25' W 123°24'0 0.6
2019-Sep-14 06:30N 48°25' W 123°23'0 0.0
2019-Sep-14 06:00N 48°25' W 123°23'0 0.0
2019-Sep-14 05:30N 48°25' W 123°23'0 0.0
2019-Sep-14 05:00N 48°25' W 123°23'0 0.0
2019-Sep-14 04:30N 48°25' W 123°23'0 0.0
2019-Sep-14 03:59N 48°25' W 123°23'0 0.0
2019-Sep-14 03:29N 48°25' W 123°23'0 0.0
2019-Sep-14 02:59N 48°25' W 123°23'0 0.0
2019-Sep-14 02:29N 48°25' W 123°23'0 0.0
2019-Sep-14 01:59N 48°25' W 123°23'1 1.4
2019-Sep-14 01:30N 48°25' W 123°24'510.1
2019-Sep-14 01:01N 48°20' W 123°24'917.9
2019-Sep-14 00:30N 48°13' W 123°34'1223.2
2019-Sep-14 00:00N 48°14' W 123°51'1223.3
2019-Sep-13 23:30N 48°18' W 124°07'1122.7
2019-Sep-13 23:01N 48°22' W 124°23'1020.9
2019-Sep-13 22:30N 48°27' W 124°37'1020.7
2019-Sep-13 22:00N 48°29' W 124°52'1020.3
2019-Sep-13 21:30N 48°29' W 125°08'918.7
2019-Sep-13 21:01N 48°33' W 125°21'1121.8
2019-Sep-13 20:31N 48°37' W 125°35'1121.7
2019-Sep-13 20:01N 48°43' W 125°49'1121.2
2019-Sep-13 19:30N 48°49' W 126°03'1121.8
2019-Sep-13 19:00N 48°55' W 126°16'1122.3
2019-Sep-13 18:30N 49°02' W 126°30'1222.3
2019-Sep-13 17:59N 49°09' W 126°45'9121.2
2019-Sep-13 13:41N 50°10' W 128°28'2221.5
2019-Sep-13 12:39N 50°28' W 128°49'422.1
2019-Sep-13 12:29N 50°31' W 128°53'1122.7
2019-Sep-13 12:00N 50°40' W 129°03'1122.7
2019-Sep-13 11:30N 50°49' W 129°14'1122.3
2019-Sep-13 11:00N 50°59' W 129°21'1121.9
2019-Sep-13 10:30N 51°10' W 129°27'1121.8
2019-Sep-13 10:00N 51°20' W 129°34'3213.2
2019-Sep-13 10:00N 51°18' W 129°30'1428.0 200 / 161011.310.8 15.514.714.0
2019-Sep-13 09:30N 51°30' W 129°41'1121.9
2019-Sep-13 08:59N 51°40' W 129°48'1222.0
2019-Sep-13 08:28N 51°51' W 129°55'10321.8
2019-Sep-13 03:45N 53°26' W 131°01'521.5
2019-Sep-13 03:30N 53°31' W 131°01'1121.5
2019-Sep-13 03:00N 53°42' W 131°01'1121.7
2019-Sep-13 02:30N 53°53' W 131°02'2221.6
2019-Sep-13 01:30N 54°14' W 131°04'1120.2
2019-Sep-13 00:59N 54°24' W 131°12'1221.0
2019-Sep-13 00:25N 54°34' W 131°23'25610.9
2019-Sep-12 00:57N 58°12' W 135°26'919.8
2019-Sep-12 00:30N 58°16' W 135°40'917.1
2019-Sep-12 00:00N 58°20' W 135°55'713.6
2019-Sep-11 23:30N 58°26' W 135°59'714.6
2019-Sep-11 23:00N 58°33' W 136°04'917.8
2019-Sep-11 22:30N 58°41' W 136°11'713.9
2019-Sep-11 22:00N 58°46' W 136°21'2 0.4
2019-Sep-11 15:55N 58°44' W 136°17'614.6
2019-Sep-11 15:30N 58°40' W 136°09'918.3
2019-Sep-11 15:00N 58°31' W 136°04'713.5
2019-Sep-11 14:30N 58°25' W 135°58'510.5
2019-Sep-11 14:00N 58°20' W 135°56'510.4
2019-Sep-11 13:30N 58°18' W 135°47'611.4
2019-Sep-11 13:00N 58°16' W 135°36'611.2
2019-Sep-11 12:29N 58°14' W 135°26'75 1.6
2019-Sep-09 15:00N 57°24' W 133°42'23418.0 300 / 91017.010.8 12.3 8.010.0
2019-Sep-09 02:00N 53°30' W 133°24'21321.0 300 / 151011.810.8 15.314.515.0
2019-Sep-08 15:53N 50°49' W 129°38'922.2
2019-Sep-08 15:28N 50°43' W 129°27'1022.1
2019-Sep-08 15:00N 50°36' W 129°15'1122.5
2019-Sep-08 14:30N 50°28' W 129°02'1122.4
2019-Sep-08 14:00N 50°20' W 128°50'4312.3
2019-Sep-08 14:00N 50°18' W 128°54'1724.3 320 / 81011.710.8 16.014.416.0
2019-Sep-08 13:19N 50°09' W 128°32'7923.7
2019-Sep-08 10:00N 49°18' W 127°00'1316.4 320 / 41013.3 5.4 15.014.715.0
2019-Sep-08 09:11N 49°11' W 126°43'422.2
2019-Sep-08 09:00N 49°08' W 126°38'1122.1
2019-Sep-08 08:30N 49°02' W 126°24'1122.7
2019-Sep-08 08:01N 48°56' W 126°10'1123.0
2019-Sep-08 07:31N 48°49' W 125°56'1122.6
2019-Sep-08 07:01N 48°42' W 125°42'1122.5
2019-Sep-08 06:30N 48°36' W 125°28'1122.2
2019-Sep-08 06:01N 48°32' W 125°12'1122.6
2019-Sep-08 05:30N 48°32' W 124°55'1122.3
2019-Sep-08 05:00N 48°29' W 124°39'1122.6
2019-Sep-08 04:30N 48°25' W 124°23'1122.3
2019-Sep-08 04:00N 48°21' W 124°08'1121.6
2019-Sep-08 03:30N 48°17' W 123°53'1122.0
2019-Sep-08 03:00N 48°15' W 123°36'9536.6
2019-Sep-08 03:00N 48°12' W 123°24'1 3.1 240 / 301013.710.8 13.511.810.0
2019-Sep-08 02:30N 48°11' W 123°24'612.7
2019-Sep-08 02:00N 48°11' W 123°14'1121.4
2019-Sep-08 01:30N 48°12' W 122°58'1221.8
2019-Sep-08 00:58N 48°08' W 122°41'1122.4
2019-Sep-08 00:28N 47°58' W 122°34'920.8
2019-Sep-08 00:00N 47°50' W 122°27'1020.4
2019-Sep-07 23:30N 47°40' W 122°27'4 6.6
2019-Sep-07 22:57N 47°38' W 122°23'0 0.0
2019-Sep-07 22:30N 47°38' W 122°23'0 0.0
2019-Sep-07 22:00N 47°38' W 122°23'0 0.0
2019-Sep-07 21:30N 47°38' W 122°23'0 0.0
2019-Sep-07 21:00N 47°38' W 122°23'0 0.0
2019-Sep-07 20:29N 47°38' W 122°23'0 0.0
2019-Sep-07 19:59N 47°38' W 122°23'0 0.0
2019-Sep-07 19:29N 47°38' W 122°23'0 0.0
2019-Sep-07 18:59N 47°38' W 122°23'0 0.0
2019-Sep-07 18:28N 47°38' W 122°23'0 0.0
2019-Sep-07 17:58N 47°38' W 122°23'0 1.5
2019-Sep-07 17:56N 47°38' W 122°23'0 0.0
2019-Sep-07 17:30N 47°38' W 122°23'0 1.3
2019-Sep-07 17:28N 47°38' W 122°23'0 0.0
2019-Sep-07 16:58N 47°38' W 122°23'0 0.6
2019-Sep-07 16:50N 47°38' W 122°23'0 0.2
2019-Sep-07 16:28N 47°38' W 122°23'0 0.0
2019-Sep-07 16:00N 47°38' W 122°23'0 0.5
2019-Sep-07 15:50N 47°38' W 122°23'0 0.3
2019-Sep-07 15:30N 47°38' W 122°23'0 4.2
2019-Sep-07 15:28N 47°38' W 122°23'0 0.3
2019-Sep-07 15:00N 47°38' W 122°23'0 6.6
2019-Sep-07 14:59N 47°38' W 122°23'0 0.2
2019-Sep-07 14:30N 47°38' W 122°23'0 0.0
2019-Sep-07 14:00N 47°38' W 122°23'0 0.3
2019-Sep-07 13:52N 47°38' W 122°23'0 0.1
2019-Sep-07 13:29N 47°38' W 122°23'0 0.3
2019-Sep-07 13:19N 47°38' W 122°23'0 0.2
2019-Sep-07 13:00N 47°38' W 122°23'0 1.6
2019-Sep-07 12:57N 47°38' W 122°23'1 1.4
2019-Sep-07 12:30N 47°37' W 122°24'5 9.8
2019-Sep-07 12:01N 47°41' W 122°28'815.2
2019-Sep-07 11:31N 47°49' W 122°28'118.2
2019-Sep-07 11:29N 47°50' W 122°28'817.1
2019-Sep-07 11:00N 47°57' W 122°34'816.3
2019-Sep-07 10:29N 48°04' W 122°39'815.2
2019-Sep-07 09:57N 48°10' W 122°48'817.4
2019-Sep-07 09:30N 48°12' W 122°59'918.1
2019-Sep-07 09:01N 48°11' W 123°13'815.7
2019-Sep-07 08:31N 48°10' W 123°24'611.9
2019-Sep-07 08:00N 48°14' W 123°31'713.4
2019-Sep-07 07:30N 48°20' W 123°27'510.7
2019-Sep-07 07:01N 48°25' W 123°24'1 1.2
2019-Sep-07 06:29N 48°25' W 123°23'0 0.0
2019-Sep-07 05:58N 48°25' W 123°23'0 0.0
2019-Sep-07 05:28N 48°25' W 123°23'0 0.0
2019-Sep-07 04:58N 48°25' W 123°23'0 0.0
2019-Sep-07 04:28N 48°25' W 123°23'0 0.0
2019-Sep-07 03:58N 48°25' W 123°23'0 0.0
2019-Sep-07 03:30N 48°25' W 123°23'0 0.6
2019-Sep-07 03:18N 48°25' W 123°23'0 0.4
2019-Sep-07 03:00N 48°25' W 123°23'0 0.7
2019-Sep-07 02:46N 48°25' W 123°24'0 0.6
2019-Sep-07 02:30N 48°25' W 123°23'0 0.4
2019-Sep-07 02:06N 48°25' W 123°24'0 1.6
2019-Sep-07 02:00N 48°25' W 123°23'0 0.9
2019-Sep-07 01:50N 48°25' W 123°23'0 0.4
2019-Sep-07 01:31N 48°25' W 123°23'3 5.2
2019-Sep-07 01:01N 48°23' W 123°25'612.7
2019-Sep-07 00:31N 48°16' W 123°26'918.5
2019-Sep-07 00:01N 48°13' W 123°39'1020.9
2019-Sep-06 23:31N 48°14' W 123°55'1020.0
2019-Sep-06 23:00N 48°18' W 124°09'1018.8
2019-Sep-06 22:30N 48°22' W 124°22'919.1
2019-Sep-06 22:01N 48°26' W 124°34'918.5
2019-Sep-06 21:31N 48°29' W 124°48'1018.7
2019-Sep-06 21:00N 48°29' W 125°02'919.0
2019-Sep-06 20:30N 48°31' W 125°16'1020.3
2019-Sep-06 20:01N 48°36' W 125°29'1020.7
2019-Sep-06 19:31N 48°41' W 125°42'1019.6
2019-Sep-06 19:01N 48°46' W 125°55'1020.1
2019-Sep-06 18:31N 48°52' W 126°08'1121.1
2019-Sep-06 18:01N 48°58' W 126°21'1121.4
2019-Sep-06 17:31N 49°05' W 126°34'1121.6
2019-Sep-06 17:00N 49°12' W 126°47'1122.0
2019-Sep-06 16:30N 49°19' W 126°60'1122.7
2019-Sep-06 16:00N 49°26' W 127°13'1622.8
2019-Sep-06 15:19N 49°35' W 127°32'4022.4
2019-Sep-06 13:32N 50°01' W 128°20'123.1
2019-Sep-06 13:30N 50°01' W 128°20'1122.6
2019-Sep-06 13:00N 50°11' W 128°29'1122.8
2019-Sep-06 12:30N 50°20' W 128°40'1122.5
2019-Sep-06 12:01N 50°29' W 128°50'1122.4
2019-Sep-06 11:31N 50°38' W 129°01'1122.0
2019-Sep-06 11:01N 50°47' W 129°12'1121.5
2019-Sep-06 10:31N 50°57' W 129°19'1122.1
2019-Sep-06 10:01N 51°07' W 129°26'1122.9
2019-Sep-06 09:31N 51°17' W 129°33'1122.4
2019-Sep-06 09:00N 51°28' W 129°39'1121.7
2019-Sep-06 08:30N 51°38' W 129°46'1122.3
2019-Sep-06 08:01N 51°48' W 129°53'1122.3
2019-Sep-06 07:31N 51°58' W 130°01'1122.3
2019-Sep-06 07:00N 52°09' W 130°08'1122.3
2019-Sep-06 06:30N 52°19' W 130°15'1122.9
2019-Sep-06 06:00N 52°29' W 130°22'1122.7
2019-Sep-06 05:31N 52°40' W 130°29'1123.0
2019-Sep-06 05:01N 52°50' W 130°37'1223.1
2019-Sep-06 04:31N 53°01' W 130°44'1122.9
2019-Sep-06 04:00N 53°11' W 130°52'1122.5
2019-Sep-06 03:30N 53°22' W 131°00'1122.6
2019-Sep-06 03:00N 53°33' W 131°01'9906.7
2019-Sep-06 03:00N 53°24' W 131°00'2041.5 360 / 61018.710.8 13.510.913.0
2019-Sep-06 02:30N 53°44' W 131°01'1122.3
2019-Sep-06 02:00N 53°56' W 131°02'1122.3
2019-Sep-06 01:30N 54°07' W 131°02'1122.7
2019-Sep-06 01:00N 54°18' W 131°05'1223.0
2019-Sep-06 00:30N 54°27' W 131°16'1122.2
2019-Sep-06 00:00N 54°37' W 131°27'1521.3
2019-Sep-05 23:17N 54°50' W 131°39'  

Dump ship's entire track history